createdAt,value
2019-01-06T00:00:24.324Z,18.24
2019-01-06T00:01:24.569Z,18.25
2019-01-06T00:02:24.702Z,18.26
2019-01-06T00:03:24.329Z,18.24
2019-01-06T00:04:24.929Z,18.25
2019-01-06T00:05:24.459Z,18.25
2019-01-06T00:06:24.357Z,18.25
2019-01-06T00:07:24.262Z,18.23
2019-01-06T00:08:24.319Z,18.22
2019-01-06T00:09:24.557Z,18.21
2019-01-06T00:10:24.732Z,18.21
2019-01-06T00:11:24.409Z,18.22
2019-01-06T00:12:24.362Z,18.2
2019-01-06T00:13:24.463Z,18.2
2019-01-06T00:14:24.385Z,18.19
2019-01-06T00:15:24.255Z,18.21
2019-01-06T00:16:24.759Z,18.18
2019-01-06T00:17:24.450Z,18.2
2019-01-06T00:18:24.387Z,18.19
2019-01-06T00:19:24.228Z,18.15
2019-01-06T00:20:24.500Z,18.19
2019-01-06T00:21:24.416Z,18.18
2019-01-06T00:22:24.189Z,18.17
2019-01-06T00:23:24.366Z,18.15
2019-01-06T00:24:24.133Z,18.17
2019-01-06T00:25:24.313Z,18.14
2019-01-06T00:26:24.181Z,18.17
2019-01-06T00:27:24.358Z,18.14
2019-01-06T00:28:24.730Z,18.14
2019-01-06T00:29:24.560Z,18.13
2019-01-06T00:30:24.291Z,18.13
2019-01-06T00:31:24.391Z,18.13
2019-01-06T00:32:24.530Z,18.14
2019-01-06T00:33:24.470Z,18.12
2019-01-06T00:34:24.362Z,18.12
2019-01-06T00:35:24.273Z,18.12
2019-01-06T00:36:24.239Z,18.12
2019-01-06T00:37:24.228Z,18.1
2019-01-06T00:38:24.350Z,18.12
2019-01-06T00:39:24.346Z,18.1
2019-01-06T00:40:24.770Z,18.1
2019-01-06T00:41:24.382Z,18.1
2019-01-06T00:42:24.379Z,18.08
2019-01-06T00:43:24.561Z,18.08
2019-01-06T00:44:25.303Z,18.09
2019-01-06T00:45:24.879Z,18.09
2019-01-06T00:46:24.248Z,18.07
2019-01-06T00:47:24.791Z,18.08
2019-01-06T00:48:24.121Z,18.09
2019-01-06T00:49:24.432Z,18.08
2019-01-06T00:50:24.160Z,18.08
2019-01-06T00:51:24.670Z,18.08
2019-01-06T00:52:24.268Z,18.07
2019-01-06T00:53:24.254Z,18.08
2019-01-06T00:54:24.395Z,18.05
2019-01-06T00:55:24.368Z,18.04
2019-01-06T00:56:24.223Z,18.04
2019-01-06T00:57:24.562Z,18.04
2019-01-06T00:58:24.361Z,18.04
2019-01-06T00:59:24.566Z,18.05
2019-01-06T01:00:24.142Z,18.04
2019-01-06T01:01:24.333Z,18.05
2019-01-06T01:02:24.801Z,18.03
2019-01-06T01:03:24.422Z,18.04
2019-01-06T01:04:24.730Z,18.04
2019-01-06T01:05:24.228Z,18.02
2019-01-06T01:06:24.667Z,18.02
2019-01-06T01:07:24.427Z,18
2019-01-06T01:08:24.647Z,18
2019-01-06T01:09:24.320Z,17.98
2019-01-06T01:10:24.658Z,18.02
2019-01-06T01:11:24.665Z,17.99
2019-01-06T01:12:24.241Z,17.99
2019-01-06T01:13:25.209Z,17.97
2019-01-06T01:14:24.269Z,17.99
2019-01-06T01:15:24.511Z,17.99
2019-01-06T01:16:24.314Z,17.98
2019-01-06T01:17:24.374Z,17.98
2019-01-06T01:18:24.322Z,17.96
2019-01-06T01:19:24.069Z,17.98
2019-01-06T01:20:24.282Z,17.97
2019-01-06T01:21:24.312Z,17.98
2019-01-06T01:22:24.181Z,17.96
2019-01-06T01:23:24.523Z,17.96
2019-01-06T01:24:24.349Z,17.95
2019-01-06T01:25:24.537Z,17.94
2019-01-06T01:26:24.173Z,17.95
2019-01-06T01:27:24.408Z,17.96
2019-01-06T01:28:24.521Z,17.95
2019-01-06T01:29:24.227Z,17.96
2019-01-06T01:30:24.254Z,17.95
2019-01-06T01:31:24.155Z,17.92
2019-01-06T01:32:24.392Z,17.92
2019-01-06T01:33:24.474Z,17.93
2019-01-06T01:34:24.185Z,17.91
2019-01-06T01:35:24.523Z,17.91
2019-01-06T01:36:24.472Z,17.91
2019-01-06T01:37:24.664Z,17.92
2019-01-06T01:38:24.441Z,17.91
2019-01-06T01:39:24.701Z,17.92
2019-01-06T01:40:25.222Z,17.91
2019-01-06T01:41:24.112Z,17.91
2019-01-06T01:42:24.641Z,17.89
2019-01-06T01:43:24.101Z,17.91
2019-01-06T01:44:25.207Z,17.88
2019-01-06T01:45:24.288Z,17.9
2019-01-06T01:46:24.242Z,17.87
2019-01-06T01:47:24.440Z,17.91
2019-01-06T01:48:24.594Z,17.88
2019-01-06T01:49:24.329Z,17.89
2019-01-06T01:50:24.322Z,17.87
2019-01-06T01:51:24.218Z,17.88
2019-01-06T01:52:24.353Z,17.83
2019-01-06T01:53:24.129Z,17.88
2019-01-06T01:54:24.690Z,17.87
2019-01-06T01:55:24.895Z,17.84
2019-01-06T01:56:24.273Z,17.84
2019-01-06T01:57:24.758Z,17.85
2019-01-06T01:58:24.241Z,17.87
2019-01-06T01:59:24.320Z,17.84
2019-01-06T02:00:24.775Z,17.83
2019-01-06T02:01:24.440Z,17.83
2019-01-06T02:02:24.364Z,17.82
2019-01-06T02:03:24.580Z,17.83
2019-01-06T02:04:24.789Z,17.82
2019-01-06T02:05:25.137Z,17.83
2019-01-06T02:06:24.363Z,17.83
2019-01-06T02:07:24.153Z,17.82
2019-01-06T02:08:24.585Z,17.81
2019-01-06T02:09:24.046Z,17.82
2019-01-06T02:10:24.667Z,17.81
2019-01-06T02:11:24.333Z,17.82
2019-01-06T02:12:24.249Z,17.8
2019-01-06T02:13:24.745Z,17.81
2019-01-06T02:14:24.406Z,17.82
2019-01-06T02:15:24.344Z,17.79
2019-01-06T02:16:24.330Z,17.8
2019-01-06T02:17:24.266Z,17.79
2019-01-06T02:18:24.578Z,17.77
2019-01-06T02:19:24.244Z,17.79
2019-01-06T02:20:24.139Z,17.78
2019-01-06T02:21:24.040Z,17.78
2019-01-06T02:22:24.209Z,17.77
2019-01-06T02:23:24.980Z,17.77
2019-01-06T02:24:25.066Z,17.77
2019-01-06T02:25:24.668Z,17.76
2019-01-06T02:26:24.569Z,17.75
2019-01-06T02:27:24.529Z,17.76
2019-01-06T02:28:24.494Z,17.76
2019-01-06T02:29:25.121Z,17.75
2019-01-06T02:30:24.732Z,17.75
2019-01-06T02:31:24.214Z,17.76
2019-01-06T02:32:24.242Z,17.73
2019-01-06T02:33:24.513Z,17.76
2019-01-06T02:34:24.325Z,17.74
2019-01-06T02:35:24.516Z,17.74
2019-01-06T02:36:24.710Z,17.72
2019-01-06T02:37:24.241Z,17.74
2019-01-06T02:38:24.246Z,17.74
2019-01-06T02:39:24.538Z,17.73
2019-01-06T02:40:24.206Z,17.73
2019-01-06T02:41:24.715Z,17.72
2019-01-06T02:42:24.376Z,17.73
2019-01-06T02:43:24.701Z,17.7
2019-01-06T02:44:24.342Z,17.7
2019-01-06T02:45:24.068Z,17.72
2019-01-06T02:46:24.325Z,17.7
2019-01-06T02:47:25.467Z,17.73
2019-01-06T02:48:24.473Z,17.7
2019-01-06T02:49:24.288Z,17.69
2019-01-06T02:50:24.727Z,17.69
2019-01-06T02:51:24.273Z,17.68
2019-01-06T02:52:24.170Z,17.68
2019-01-06T02:53:24.357Z,17.69
2019-01-06T02:54:24.254Z,17.67
2019-01-06T02:55:24.125Z,17.67
2019-01-06T02:56:24.520Z,17.69
2019-01-06T02:57:24.096Z,17.69
2019-01-06T02:58:24.385Z,17.68
2019-01-06T02:59:24.511Z,17.68
2019-01-06T03:00:24.093Z,17.67
2019-01-06T03:01:24.506Z,17.66
2019-01-06T03:02:24.247Z,17.67
2019-01-06T03:03:24.214Z,17.65
2019-01-06T03:04:24.468Z,17.67
2019-01-06T03:05:24.156Z,17.67
2019-01-06T03:06:24.342Z,17.65
2019-01-06T03:07:24.583Z,17.66
2019-01-06T03:08:24.713Z,17.66
2019-01-06T03:09:24.096Z,17.65
2019-01-06T03:10:24.391Z,17.65
2019-01-06T03:11:24.655Z,17.64
2019-01-06T03:12:24.204Z,17.67
2019-01-06T03:13:24.282Z,17.64
2019-01-06T03:14:24.227Z,17.63
2019-01-06T03:15:24.511Z,17.61
2019-01-06T03:16:24.766Z,17.61
2019-01-06T03:17:24.467Z,17.63
2019-01-06T03:18:24.227Z,17.63
2019-01-06T03:19:24.033Z,17.62
2019-01-06T03:20:24.604Z,17.61
2019-01-06T03:21:24.526Z,17.63
2019-01-06T03:22:24.742Z,17.61
2019-01-06T03:23:24.734Z,17.63
2019-01-06T03:24:24.588Z,17.63
2019-01-06T03:25:24.204Z,17.61
2019-01-06T03:26:24.670Z,17.61
2019-01-06T03:27:24.961Z,17.6
2019-01-06T03:28:24.428Z,17.61
2019-01-06T03:29:24.776Z,17.61
2019-01-06T03:30:24.767Z,17.61
2019-01-06T03:31:24.603Z,17.59
2019-01-06T03:32:24.714Z,17.59
2019-01-06T03:33:24.163Z,17.56
2019-01-06T03:34:24.244Z,17.59
2019-01-06T03:35:24.684Z,17.59
2019-01-06T03:36:24.117Z,17.56
2019-01-06T03:37:24.649Z,17.58
2019-01-06T03:38:24.140Z,17.58
2019-01-06T03:39:24.838Z,17.56
2019-01-06T03:40:24.503Z,17.55
2019-01-06T03:41:24.161Z,17.56
2019-01-06T03:42:24.325Z,17.55
2019-01-06T03:43:24.077Z,17.56
2019-01-06T03:44:24.678Z,17.54
2019-01-06T03:45:24.181Z,17.54
2019-01-06T03:46:24.406Z,17.56
2019-01-06T03:47:24.580Z,17.54
2019-01-06T03:48:24.434Z,17.56
2019-01-06T03:49:25.057Z,17.55
2019-01-06T03:50:24.293Z,17.52
2019-01-06T03:51:24.708Z,17.54
2019-01-06T03:52:24.278Z,17.53
2019-01-06T03:53:24.109Z,17.52
2019-01-06T03:54:25.015Z,17.55
2019-01-06T03:55:24.530Z,17.52
2019-01-06T03:56:25.143Z,17.53
2019-01-06T03:57:24.381Z,17.52
2019-01-06T03:58:25.036Z,17.51
2019-01-06T03:59:24.021Z,17.53
2019-01-06T04:00:24.195Z,17.53
2019-01-06T04:01:24.267Z,17.51
2019-01-06T04:02:24.143Z,17.5
2019-01-06T04:03:24.306Z,17.51
2019-01-06T04:04:24.351Z,17.51
2019-01-06T04:05:24.649Z,17.5
2019-01-06T04:06:24.500Z,17.52
2019-01-06T04:07:24.202Z,17.51
2019-01-06T04:08:24.186Z,17.5
2019-01-06T04:09:24.498Z,17.51
2019-01-06T04:10:24.744Z,17.5
2019-01-06T04:11:24.418Z,17.5
2019-01-06T04:12:24.480Z,17.48
2019-01-06T04:13:24.359Z,17.48
2019-01-06T04:14:24.779Z,17.48
2019-01-06T04:15:24.632Z,17.5
2019-01-06T04:16:24.723Z,17.47
2019-01-06T04:17:24.215Z,17.47
2019-01-06T04:18:24.637Z,17.47
2019-01-06T04:19:24.299Z,17.48
2019-01-06T04:20:24.368Z,17.49
2019-01-06T04:21:24.058Z,17.47
2019-01-06T04:22:24.635Z,17.47
2019-01-06T04:23:24.352Z,17.47
2019-01-06T04:24:24.385Z,17.47
2019-01-06T04:25:24.572Z,17.46
2019-01-06T04:26:24.300Z,17.45
2019-01-06T04:27:24.323Z,17.46
2019-01-06T04:28:24.369Z,17.46
2019-01-06T04:29:24.481Z,17.46
2019-01-06T04:30:24.314Z,17.45
2019-01-06T04:31:24.463Z,17.47
2019-01-06T04:32:24.275Z,17.45
2019-01-06T04:33:24.360Z,17.45
2019-01-06T04:34:24.685Z,17.45
2019-01-06T04:35:24.590Z,17.45
2019-01-06T04:36:24.169Z,17.45
2019-01-06T04:37:24.155Z,17.45
2019-01-06T04:38:24.110Z,17.44
2019-01-06T04:39:24.271Z,17.46
2019-01-06T04:40:24.682Z,17.45
2019-01-06T04:41:24.199Z,17.45
2019-01-06T04:42:24.599Z,17.45
2019-01-06T04:43:24.265Z,17.45
2019-01-06T04:44:24.290Z,17.45
2019-01-06T04:45:24.267Z,17.45
2019-01-06T04:46:24.325Z,17.45
2019-01-06T04:47:24.261Z,17.45
2019-01-06T04:48:24.508Z,17.45
2019-01-06T04:49:24.261Z,17.45
2019-01-06T04:50:24.139Z,17.45
2019-01-06T04:51:24.256Z,17.45
2019-01-06T04:52:24.502Z,17.48
2019-01-06T04:53:24.192Z,17.47
2019-01-06T04:54:24.548Z,17.49
2019-01-06T04:55:24.179Z,17.49
2019-01-06T04:56:24.336Z,17.49
2019-01-06T04:57:24.078Z,17.48
2019-01-06T04:58:24.199Z,17.52
2019-01-06T04:59:25.227Z,17.54
2019-01-06T05:00:24.723Z,17.53
2019-01-06T05:01:24.695Z,17.54
2019-01-06T05:02:24.435Z,17.55
2019-01-06T05:03:24.218Z,17.59
2019-01-06T05:04:25.003Z,17.55
2019-01-06T05:05:24.425Z,17.59
2019-01-06T05:06:24.757Z,17.63
2019-01-06T05:07:24.603Z,17.59
2019-01-06T05:08:24.242Z,17.62
2019-01-06T05:09:24.145Z,17.65
2019-01-06T05:10:24.291Z,17.67
2019-01-06T05:11:25.041Z,17.66
2019-01-06T05:12:24.517Z,17.69
2019-01-06T05:13:24.177Z,17.69
2019-01-06T05:14:24.146Z,17.73
2019-01-06T05:15:24.119Z,17.72
2019-01-06T05:16:24.081Z,17.76
2019-01-06T05:17:24.306Z,17.75
2019-01-06T05:18:24.618Z,17.78
2019-01-06T05:19:24.029Z,17.78
2019-01-06T05:20:24.233Z,17.8
2019-01-06T05:21:24.161Z,17.81
2019-01-06T05:22:24.241Z,17.83
2019-01-06T05:23:25.015Z,17.84
2019-01-06T05:24:24.082Z,17.85
2019-01-06T05:25:24.459Z,17.87
2019-01-06T05:26:24.906Z,17.9
2019-01-06T05:27:24.177Z,17.9
2019-01-06T05:28:24.697Z,17.91
2019-01-06T05:29:24.250Z,17.94
2019-01-06T05:30:24.126Z,17.94
2019-01-06T05:31:24.154Z,17.94
2019-01-06T05:32:25.075Z,17.98
2019-01-06T05:33:24.414Z,17.98
2019-01-06T05:34:25.078Z,17.99
2019-01-06T05:35:24.653Z,17.99
2019-01-06T05:36:24.184Z,18.04
2019-01-06T05:37:24.675Z,18.05
2019-01-06T05:38:24.512Z,18.07
2019-01-06T05:39:24.106Z,18.08
2019-01-06T05:40:24.516Z,18.1
2019-01-06T05:41:24.200Z,18.09
2019-01-06T05:42:24.353Z,18.1
2019-01-06T05:43:24.526Z,18.11
2019-01-06T05:44:24.598Z,18.13
2019-01-06T05:45:24.006Z,18.17
2019-01-06T05:46:24.386Z,18.17
2019-01-06T05:47:25.229Z,18.18
2019-01-06T05:48:24.161Z,18.19
2019-01-06T05:49:24.409Z,18.22
2019-01-06T05:50:24.536Z,18.22
2019-01-06T05:51:24.137Z,18.23
2019-01-06T05:52:24.034Z,18.23
2019-01-06T05:53:24.104Z,18.25
2019-01-06T05:54:24.239Z,18.26
2019-01-06T05:55:24.150Z,18.27
2019-01-06T05:56:24.425Z,18.29
2019-01-06T05:57:24.049Z,18.3
2019-01-06T05:58:24.536Z,18.3
2019-01-06T05:59:24.212Z,18.3
2019-01-06T06:00:24.277Z,18.3
2019-01-06T06:01:24.296Z,18.33
2019-01-06T06:02:24.185Z,18.36
2019-01-06T06:03:24.292Z,18.38
2019-01-06T06:04:24.193Z,18.37
2019-01-06T06:05:24.048Z,18.38
2019-01-06T06:06:24.296Z,18.38
2019-01-06T06:07:23.970Z,18.42
2019-01-06T06:08:24.201Z,18.43
2019-01-06T06:09:24.191Z,18.43
2019-01-06T06:10:24.136Z,18.46
2019-01-06T06:11:24.433Z,18.46
2019-01-06T06:12:24.529Z,18.49
2019-01-06T06:13:24.391Z,18.49
2019-01-06T06:14:24.374Z,18.47
2019-01-06T06:15:24.371Z,18.51
2019-01-06T06:16:24.613Z,18.52
2019-01-06T06:17:24.028Z,18.51
2019-01-06T06:18:24.191Z,18.53
2019-01-06T06:19:24.014Z,18.54
2019-01-06T06:20:24.312Z,18.56
2019-01-06T06:21:24.219Z,18.56
2019-01-06T06:22:24.333Z,18.57
2019-01-06T06:23:24.231Z,18.58
2019-01-06T06:24:23.983Z,18.58
2019-01-06T06:25:24.093Z,18.62
2019-01-06T06:26:24.305Z,18.62
2019-01-06T06:27:24.043Z,18.63
2019-01-06T06:28:24.229Z,18.63
2019-01-06T06:29:24.236Z,18.65
2019-01-06T06:30:24.299Z,18.64
2019-01-06T06:31:24.403Z,18.66
2019-01-06T06:32:24.091Z,18.66
2019-01-06T06:33:24.271Z,18.67
2019-01-06T06:34:23.993Z,18.65
2019-01-06T06:35:24.229Z,18.69
2019-01-06T06:36:24.069Z,18.68
2019-01-06T06:37:24.223Z,18.69
2019-01-06T06:38:24.389Z,18.68
2019-01-06T06:39:24.104Z,18.69
2019-01-06T06:40:24.418Z,18.7
2019-01-06T06:41:24.260Z,18.71
2019-01-06T06:42:24.359Z,18.72
2019-01-06T06:43:24.240Z,18.7
2019-01-06T06:44:24.419Z,18.72
2019-01-06T06:45:24.880Z,18.71
2019-01-06T06:46:24.583Z,18.72
2019-01-06T06:47:25.030Z,18.72
2019-01-06T06:48:24.398Z,18.72
2019-01-06T06:49:24.401Z,18.73
2019-01-06T06:50:24.249Z,18.74
2019-01-06T06:51:23.985Z,18.76
2019-01-06T06:52:24.437Z,18.74
2019-01-06T06:53:24.489Z,18.74
2019-01-06T06:54:24.378Z,18.76
2019-01-06T06:55:24.429Z,18.77
2019-01-06T06:56:24.209Z,18.78
2019-01-06T06:57:24.117Z,18.77
2019-01-06T06:58:24.165Z,18.77
2019-01-06T06:59:24.190Z,18.77
2019-01-06T07:00:24.324Z,18.79
2019-01-06T07:01:24.314Z,18.81
2019-01-06T07:02:25.147Z,18.8
2019-01-06T07:03:24.243Z,18.8
2019-01-06T07:04:24.087Z,18.8
2019-01-06T07:05:24.058Z,18.8
2019-01-06T07:06:24.510Z,18.81
2019-01-06T07:07:23.922Z,18.81
2019-01-06T07:08:24.417Z,18.83
2019-01-06T07:09:24.566Z,18.83
2019-01-06T07:10:24.350Z,18.83
2019-01-06T07:11:24.252Z,18.84
2019-01-06T07:12:23.926Z,18.83
2019-01-06T07:13:24.268Z,18.84
2019-01-06T07:14:24.221Z,18.84
2019-01-06T07:15:24.264Z,18.85
2019-01-06T07:16:24.252Z,18.87
2019-01-06T07:17:24.160Z,18.87
2019-01-06T07:18:24.224Z,18.85
2019-01-06T07:19:24.232Z,18.88
2019-01-06T07:20:24.085Z,18.89
2019-01-06T07:21:24.108Z,18.89
2019-01-06T07:22:24.104Z,18.88
2019-01-06T07:23:24.134Z,18.89
2019-01-06T07:24:24.539Z,18.91
2019-01-06T07:25:23.996Z,18.93
2019-01-06T07:26:24.403Z,18.95
2019-01-06T07:27:24.317Z,18.93
2019-01-06T07:28:25.041Z,18.95
2019-01-06T07:29:23.956Z,18.94
2019-01-06T07:30:24.066Z,18.94
2019-01-06T07:31:24.496Z,18.96
2019-01-06T07:32:24.144Z,18.95
2019-01-06T07:33:24.420Z,18.98
2019-01-06T07:34:24.006Z,18.97
2019-01-06T07:35:24.450Z,18.99
2019-01-06T07:36:24.684Z,19
2019-01-06T07:37:24.168Z,18.98
2019-01-06T07:38:24.188Z,19.01
2019-01-06T07:39:24.416Z,19.01
2019-01-06T07:40:24.304Z,19.01
2019-01-06T07:41:24.268Z,19.01
2019-01-06T07:42:24.318Z,19.01
2019-01-06T07:43:24.485Z,19.05
2019-01-06T07:44:24.246Z,19.01
2019-01-06T07:45:24.398Z,19.05
2019-01-06T07:46:24.026Z,19.03
2019-01-06T07:47:24.200Z,19.02
2019-01-06T07:48:24.116Z,19.06
2019-01-06T07:49:24.029Z,19.05
2019-01-06T07:50:24.547Z,19.05
2019-01-06T07:51:24.088Z,19.07
2019-01-06T07:52:24.142Z,19.08
2019-01-06T07:53:24.740Z,19.07
2019-01-06T07:54:24.034Z,19.07
2019-01-06T07:55:24.259Z,19.09
2019-01-06T07:56:24.060Z,19.09
2019-01-06T07:57:24.127Z,19.11
2019-01-06T07:58:24.324Z,19.1
2019-01-06T07:59:23.979Z,19.1
2019-01-06T08:00:24.213Z,19.12
2019-01-06T08:01:24.543Z,19.11
2019-01-06T08:02:24.329Z,19.12
2019-01-06T08:03:24.256Z,19.12
2019-01-06T08:04:24.488Z,19.12
2019-01-06T08:05:24.092Z,19.13
2019-01-06T08:06:24.121Z,19.13
2019-01-06T08:07:24.274Z,19.12
2019-01-06T08:08:24.136Z,19.14
2019-01-06T08:09:24.051Z,19.14
2019-01-06T08:10:24.234Z,19.12
2019-01-06T08:11:24.152Z,19.15
2019-01-06T08:12:24.184Z,19.14
2019-01-06T08:13:24.009Z,19.13
2019-01-06T08:14:24.229Z,19.17
2019-01-06T08:15:24.157Z,19.15
2019-01-06T08:16:24.155Z,19.16
2019-01-06T08:17:24.338Z,19.17
2019-01-06T08:18:24.042Z,19.17
2019-01-06T08:19:24.410Z,19.16
2019-01-06T08:20:24.048Z,19.18
2019-01-06T08:21:24.262Z,19.17
2019-01-06T08:22:24.166Z,19.17
2019-01-06T08:23:24.139Z,19.17
2019-01-06T08:24:24.113Z,19.18
2019-01-06T08:25:24.023Z,19.18
2019-01-06T08:26:24.329Z,19.17
2019-01-06T08:27:23.896Z,19.18
2019-01-06T08:28:24.723Z,19.18
2019-01-06T08:29:24.213Z,19.2
2019-01-06T08:30:24.420Z,19.2
2019-01-06T08:31:24.363Z,19.21
2019-01-06T08:32:24.012Z,19.22
2019-01-06T08:33:25.099Z,19.22
2019-01-06T08:34:24.237Z,19.22
2019-01-06T08:35:24.351Z,19.21
2019-01-06T08:36:24.189Z,19.22
2019-01-06T08:37:24.068Z,19.24
2019-01-06T08:38:24.212Z,19.21
2019-01-06T08:39:24.529Z,19.24
2019-01-06T08:40:24.326Z,19.23
2019-01-06T08:41:24.442Z,19.24
2019-01-06T08:42:24.529Z,19.24
2019-01-06T08:43:24.160Z,19.24
2019-01-06T08:44:23.944Z,19.24
2019-01-06T08:45:24.435Z,19.26
2019-01-06T08:46:24.705Z,19.24
2019-01-06T08:47:24.211Z,19.25
2019-01-06T08:48:24.404Z,19.26
2019-01-06T08:49:24.359Z,19.25
2019-01-06T08:50:24.028Z,19.27
2019-01-06T08:51:24.426Z,19.26
2019-01-06T08:52:24.471Z,19.27
2019-01-06T08:53:24.200Z,19.26
2019-01-06T08:54:23.915Z,19.29
2019-01-06T08:55:24.519Z,19.29
2019-01-06T08:56:24.308Z,19.29
2019-01-06T08:57:24.320Z,19.27
2019-01-06T08:58:24.159Z,19.29
2019-01-06T08:59:24.009Z,19.29
2019-01-06T09:00:24.175Z,19.28
2019-01-06T09:01:24.096Z,19.29
2019-01-06T09:02:24.089Z,19.3
2019-01-06T09:03:24.480Z,19.3
2019-01-06T09:04:24.256Z,19.31
2019-01-06T09:05:24.134Z,19.32
2019-01-06T09:06:24.280Z,19.32
2019-01-06T09:07:24.127Z,19.32
2019-01-06T09:08:24.533Z,19.32
2019-01-06T09:09:24.440Z,19.36
2019-01-06T09:10:24.209Z,19.32
2019-01-06T09:11:24.337Z,19.32
2019-01-06T09:12:25.041Z,19.36
2019-01-06T09:13:24.554Z,19.35
2019-01-06T09:14:24.224Z,19.33
2019-01-06T09:15:24.120Z,19.37
2019-01-06T09:16:24.164Z,19.36
2019-01-06T09:17:24.438Z,19.36
2019-01-06T09:18:24.183Z,19.36
2019-01-06T09:19:24.079Z,19.37
2019-01-06T09:20:24.147Z,19.38
2019-01-06T09:21:24.957Z,19.38
2019-01-06T09:22:24.355Z,19.37
2019-01-06T09:23:23.991Z,19.41
2019-01-06T09:24:24.041Z,19.38
2019-01-06T09:25:23.945Z,19.4
2019-01-06T09:26:24.413Z,19.4
2019-01-06T09:27:24.234Z,19.41
2019-01-06T09:28:24.125Z,19.41
2019-01-06T09:29:24.251Z,19.39
2019-01-06T09:30:24.927Z,19.42
2019-01-06T09:31:24.249Z,19.42
2019-01-06T09:32:23.900Z,19.4
2019-01-06T09:33:24.455Z,19.45
2019-01-06T09:34:24.688Z,19.41
2019-01-06T09:35:24.056Z,19.44
2019-01-06T09:36:24.499Z,19.44
2019-01-06T09:37:24.162Z,19.42
2019-01-06T09:38:24.471Z,19.45
2019-01-06T09:39:24.416Z,19.43
2019-01-06T09:40:24.360Z,19.45
2019-01-06T09:41:24.088Z,19.46
2019-01-06T09:42:24.941Z,19.45
2019-01-06T09:43:24.237Z,19.45
2019-01-06T09:44:23.972Z,19.44
2019-01-06T09:45:24.290Z,19.46
2019-01-06T09:46:24.474Z,19.47
2019-01-06T09:47:24.272Z,19.44
2019-01-06T09:48:24.132Z,19.45
2019-01-06T09:49:24.168Z,19.45
2019-01-06T09:50:24.198Z,19.47
2019-01-06T09:51:24.147Z,19.5
2019-01-06T09:52:24.035Z,19.48
2019-01-06T09:53:24.094Z,19.47
2019-01-06T09:54:24.429Z,19.47
2019-01-06T09:55:23.991Z,19.46
2019-01-06T09:56:24.353Z,19.46
2019-01-06T09:57:24.047Z,19.47
2019-01-06T09:58:24.091Z,19.46
2019-01-06T09:59:24.153Z,19.48
2019-01-06T10:00:24.212Z,19.46
2019-01-06T10:01:24.054Z,19.47
2019-01-06T10:02:24.363Z,19.46
2019-01-06T10:03:24.224Z,19.47
2019-01-06T10:04:23.897Z,19.47
2019-01-06T10:05:24.114Z,19.47
2019-01-06T10:06:24.521Z,19.46
2019-01-06T10:07:24.330Z,19.45
2019-01-06T10:08:24.244Z,19.45
2019-01-06T10:09:23.886Z,19.45
2019-01-06T10:10:24.873Z,19.47
2019-01-06T10:11:23.898Z,19.44
2019-01-06T10:12:23.959Z,19.43
2019-01-06T10:13:24.130Z,19.45
2019-01-06T10:14:24.025Z,19.44
2019-01-06T10:15:24.409Z,19.45
2019-01-06T10:16:23.996Z,19.43
2019-01-06T10:17:24.049Z,19.42
2019-01-06T10:18:24.344Z,19.46
2019-01-06T10:19:23.956Z,19.44
2019-01-06T10:20:24.178Z,19.44
2019-01-06T10:21:24.291Z,19.45
2019-01-06T10:22:24.458Z,19.44
2019-01-06T10:23:24.227Z,19.43
2019-01-06T10:24:24.689Z,19.44
2019-01-06T10:25:24.085Z,19.42
2019-01-06T10:26:23.910Z,19.42
2019-01-06T10:27:24.473Z,19.44
2019-01-06T10:28:24.348Z,19.42
2019-01-06T10:29:24.655Z,19.43
2019-01-06T10:30:24.166Z,19.43
2019-01-06T10:31:26.767Z,19.43
2019-01-06T10:32:24.572Z,19.43
2019-01-06T10:33:24.079Z,19.42
2019-01-06T10:34:24.069Z,19.4
2019-01-06T10:35:24.359Z,19.41
2019-01-06T10:36:24.396Z,19.41
2019-01-06T10:37:24.071Z,19.44
2019-01-06T10:38:24.441Z,19.44
2019-01-06T10:39:25.317Z,19.47
2019-01-06T10:40:24.750Z,19.47
2019-01-06T10:41:24.915Z,19.48
2019-01-06T10:42:24.025Z,19.48
2019-01-06T10:43:23.874Z,19.5
2019-01-06T10:44:24.275Z,19.51
2019-01-06T10:45:24.988Z,19.51
2019-01-06T10:46:24.389Z,19.52
2019-01-06T10:47:23.998Z,19.52
2019-01-06T10:48:24.215Z,19.53
2019-01-06T10:49:24.573Z,19.54
2019-01-06T10:50:24.220Z,19.54
2019-01-06T10:51:24.684Z,19.54
2019-01-06T10:52:23.987Z,19.54
2019-01-06T10:53:24.839Z,19.56
2019-01-06T10:54:24.165Z,19.57
2019-01-06T10:55:24.057Z,19.58
2019-01-06T10:56:24.088Z,19.58
2019-01-06T10:57:24.613Z,19.61
2019-01-06T10:58:24.348Z,19.6
2019-01-06T10:59:24.048Z,19.59
2019-01-06T11:00:24.415Z,19.66
2019-01-06T11:01:24.934Z,19.62
2019-01-06T11:02:25.588Z,19.65
2019-01-06T11:03:24.807Z,19.66
2019-01-06T11:04:24.834Z,19.66
2019-01-06T11:05:25.141Z,19.67
2019-01-06T11:06:26.138Z,19.67
2019-01-06T11:07:24.268Z,19.69
2019-01-06T11:08:24.920Z,19.69
2019-01-06T11:09:24.715Z,19.68
2019-01-06T11:10:24.994Z,19.69
2019-01-06T11:11:24.832Z,19.68
2019-01-06T11:12:25.954Z,19.69
2019-01-06T11:13:25.420Z,19.7
2019-01-06T11:14:25.886Z,19.71
2019-01-06T11:15:24.412Z,19.71
2019-01-06T11:16:25.497Z,19.71
2019-01-06T11:17:25.224Z,19.72
2019-01-06T11:18:24.309Z,19.73
2019-01-06T11:19:25.059Z,19.74
2019-01-06T11:20:26.102Z,19.74
2019-01-06T11:21:25.630Z,19.73
2019-01-06T11:22:25.912Z,19.73
2019-01-06T11:23:24.599Z,19.75
2019-01-06T11:24:25.487Z,19.75
2019-01-06T11:25:24.829Z,19.76
2019-01-06T11:26:25.607Z,19.75
2019-01-06T11:27:27.130Z,19.75
2019-01-06T11:28:25.192Z,19.76
2019-01-06T11:29:25.445Z,19.8
2019-01-06T11:30:24.894Z,19.79
2019-01-06T11:31:26.359Z,19.77
2019-01-06T11:32:24.615Z,19.8
2019-01-06T11:33:25.289Z,19.8
2019-01-06T11:34:26.700Z,19.79
2019-01-06T11:35:25.491Z,19.81
2019-01-06T11:36:25.044Z,19.8
2019-01-06T11:37:25.645Z,19.81
2019-01-06T11:38:25.244Z,19.83
2019-01-06T11:39:24.369Z,19.83
2019-01-06T11:40:25.602Z,19.84
2019-01-06T11:41:24.556Z,19.82
2019-01-06T11:42:25.554Z,19.84
2019-01-06T11:43:25.309Z,19.85
2019-01-06T11:44:24.393Z,19.85
2019-01-06T11:45:24.596Z,19.85
2019-01-06T11:46:24.989Z,19.85
2019-01-06T11:47:25.390Z,19.86
2019-01-06T11:48:24.438Z,19.89
2019-01-06T11:49:25.146Z,19.86
2019-01-06T11:50:24.291Z,19.89
2019-01-06T11:51:24.963Z,19.89
2019-01-06T11:52:25.475Z,19.91
2019-01-06T11:53:26.556Z,19.94
2019-01-06T11:54:25.390Z,19.91
2019-01-06T11:55:25.213Z,19.92
2019-01-06T11:56:25.619Z,19.95
2019-01-06T11:57:25.203Z,19.95
2019-01-06T11:58:25.107Z,19.97
2019-01-06T11:59:25.029Z,19.95
2019-01-06T12:00:24.714Z,19.99
2019-01-06T12:01:25.673Z,19.99
2019-01-06T12:02:25.570Z,19.99
2019-01-06T12:03:25.575Z,19.99
2019-01-06T12:04:23.934Z,20
2019-01-06T12:05:24.520Z,20.02
2019-01-06T12:06:24.174Z,20
2019-01-06T12:07:23.858Z,20
2019-01-06T12:08:24.213Z,20
2019-01-06T12:09:24.434Z,20.02
2019-01-06T12:10:23.971Z,20
2019-01-06T12:11:23.969Z,20.01
2019-01-06T12:12:24.432Z,20.01
2019-01-06T12:13:24.124Z,19.98
2019-01-06T12:14:23.970Z,19.97
2019-01-06T12:15:24.302Z,19.98
2019-01-06T12:16:24.150Z,19.98
2019-01-06T12:17:23.926Z,19.95
2019-01-06T12:18:24.193Z,19.97
2019-01-06T12:19:24.283Z,19.96
2019-01-06T12:20:24.141Z,19.95
2019-01-06T12:21:24.019Z,19.95
2019-01-06T12:22:24.221Z,19.95
2019-01-06T12:23:24.426Z,19.94
2019-01-06T12:24:23.953Z,19.95
2019-01-06T12:25:24.384Z,19.92
2019-01-06T12:26:24.259Z,19.9
2019-01-06T12:27:24.896Z,19.91
2019-01-06T12:28:24.998Z,19.9
2019-01-06T12:29:24.481Z,19.92
2019-01-06T12:30:24.396Z,19.91
2019-01-06T12:31:24.498Z,19.9
2019-01-06T12:32:23.881Z,19.92
2019-01-06T12:33:24.145Z,19.94
2019-01-06T12:34:24.499Z,19.95
2019-01-06T12:35:24.328Z,19.95
2019-01-06T12:36:24.080Z,19.92
2019-01-06T12:37:23.863Z,19.95
2019-01-06T12:38:25.034Z,19.97
2019-01-06T12:39:24.592Z,19.95
2019-01-06T12:40:24.439Z,19.96
2019-01-06T12:41:24.142Z,19.96
2019-01-06T12:42:23.925Z,19.97
2019-01-06T12:43:24.661Z,19.95
2019-01-06T12:44:23.947Z,19.95
2019-01-06T12:45:24.190Z,19.95
2019-01-06T12:46:23.912Z,19.94
2019-01-06T12:47:24.151Z,19.94
2019-01-06T12:48:24.220Z,19.92
2019-01-06T12:49:23.994Z,19.94
2019-01-06T12:50:23.919Z,19.92
2019-01-06T12:51:24.980Z,19.92
2019-01-06T12:52:24.001Z,19.94
2019-01-06T12:53:24.422Z,19.91
2019-01-06T12:54:23.856Z,19.92
2019-01-06T12:55:24.543Z,19.9